sensor_id;sensor_type;location;lat;lon;timestamp;pressure;altitude;pressure_sealevel;temperature;humidity
34482;BME280;20720;48.886;9.388;2023-06-10T00:02:13;98009.47;;;19.48;100.00
34482;BME280;20720;48.886;9.388;2023-06-10T00:04:38;98007.66;;;20.19;100.00
34482;BME280;20720;48.886;9.388;2023-06-10T00:07:04;98004.69;;;20.41;100.00
34482;BME280;20720;48.886;9.388;2023-06-10T00:09:34;98012.97;;;20.39;100.00
34482;BME280;20720;48.886;9.388;2023-06-10T00:12:00;98007.63;;;20.54;97.63
34482;BME280;20720;48.886;9.388;2023-06-10T00:14:25;98011.63;;;20.12;100.00
34482;BME280;20720;48.886;9.388;2023-06-10T00:16:51;98009.50;;;20.09;100.00
34482;BME280;20720;48.886;9.388;2023-06-10T00:19:17;98002.53;;;20.48;99.49
34482;BME280;20720;48.886;9.388;2023-06-10T00:21:44;98007.34;;;20.56;98.44
34482;BME280;20720;48.886;9.388;2023-06-10T00:24:10;98007.88;;;20.58;98.57
34482;BME280;20720;48.886;9.388;2023-06-10T00:26:37;98007.06;;;20.57;98.38
34482;BME280;20720;48.886;9.388;2023-06-10T00:29:03;98008.44;;;20.05;100.00
34482;BME280;20720;48.886;9.388;2023-06-10T00:31:28;97994.28;;;20.14;100.00
34482;BME280;20720;48.886;9.388;2023-06-10T00:33:53;98000.97;;;20.42;100.00
34482;BME280;20720;48.886;9.388;2023-06-10T00:36:19;97993.19;;;20.60;98.63
34482;BME280;20720;48.886;9.388;2023-06-10T00:38:44;98006.25;;;20.62;99.12
34482;BME280;20720;48.886;9.388;2023-06-10T00:41:09;98003.13;;;20.30;100.00
34482;BME280;20720;48.886;9.388;2023-06-10T00:43:35;97999.63;;;20.39;100.00
34482;BME280;20720;48.886;9.388;2023-06-10T00:46:00;98004.16;;;20.44;98.33
34482;BME280;20720;48.886;9.388;2023-06-10T00:48:26;98000.16;;;20.41;97.63
34482;BME280;20720;48.886;9.388;2023-06-10T00:50:52;98008.16;;;20.46;96.65
34482;BME280;20720;48.886;9.388;2023-06-10T00:53:17;98001.78;;;20.37;97.26
34482;BME280;20720;48.886;9.388;2023-06-10T00:55:43;98004.16;;;20.14;99.28
34482;BME280;20720;48.886;9.388;2023-06-10T00:58:08;98001.78;;;20.22;98.54
34482;BME280;20720;48.886;9.388;2023-06-10T01:00:34;98001.00;;;20.22;98.03
34482;BME280;20720;48.886;9.388;2023-06-10T01:03:00;97998.84;;;20.24;98.43
34482;BME280;20720;48.886;9.388;2023-06-10T01:05:26;97995.13;;;20.20;98.57
34482;BME280;20720;48.886;9.388;2023-06-10T01:08:10;98002.06;;;20.06;98.91
34482;BME280;20720;48.886;9.388;2023-06-10T01:10:42;97995.63;;;20.12;97.94
34482;BME280;20720;48.886;9.388;2023-06-10T01:13:11;97998.81;;;20.14;97.52
34482;BME280;20720;48.886;9.388;2023-06-10T01:15:39;98001.78;;;20.02;98.38
34482;BME280;20720;48.886;9.388;2023-06-10T01:18:08;98000.19;;;19.81;100.00
34482;BME280;20720;48.886;9.388;2023-06-10T01:20:37;98001.75;;;19.72;100.00
34482;BME280;20720;48.886;9.388;2023-06-10T01:23:06;97992.69;;;19.78;100.00
34482;BME280;20720;48.886;9.388;2023-06-10T01:25:33;97998.25;;;19.51;100.00
34482;BME280;20720;48.886;9.388;2023-06-10T01:33:29;97991.81;;;19.32;100.00
34482;BME280;20720;48.886;9.388;2023-06-10T01:35:57;97994.56;;;19.67;100.00
34482;BME280;20720;48.886;9.388;2023-06-10T01:38:28;97992.97;;;19.87;99.15
34482;BME280;20720;48.886;9.388;2023-06-10T01:40:56;98001.75;;;20.12;96.37
34482;BME280;20720;48.886;9.388;2023-06-10T01:43:22;97995.38;;;19.88;96.85
34482;BME280;20720;48.886;9.388;2023-06-10T01:45:47;98000.41;;;19.80;100.00
34482;BME280;20720;48.886;9.388;2023-06-10T01:48:13;98002.81;;;19.76;99.33
34482;BME280;20720;48.886;9.388;2023-06-10T01:50:38;97990.84;;;20.09;97.01
34482;BME280;20720;48.886;9.388;2023-06-10T01:53:04;97998.84;;;20.04;97.17
34482;BME280;20720;48.886;9.388;2023-06-10T01:55:30;98003.63;;;19.97;96.59
34482;BME280;20720;48.886;9.388;2023-06-10T01:57:55;97999.59;;;19.54;100.00
34482;BME280;20720;48.886;9.388;2023-06-10T02:00:20;98003.63;;;20.07;96.63
34482;BME280;20720;48.886;9.388;2023-06-10T02:02:46;98004.38;;;19.42;100.00
34482;BME280;20720;48.886;9.388;2023-06-10T02:05:11;98003.78;;;19.30;100.00
34482;BME280;20720;48.886;9.388;2023-06-10T02:07:36;98005.25;;;19.98;99.44
34482;BME280;20720;48.886;9.388;2023-06-10T02:10:03;98013.25;;;19.98;99.17
34482;BME280;20720;48.886;9.388;2023-06-10T02:12:29;98012.69;;;19.65;100.00
34482;BME280;20720;48.886;9.388;2023-06-10T02:14:54;98008.97;;;19.72;100.00
34482;BME280;20720;48.886;9.388;2023-06-10T02:17:19;98007.88;;;19.73;100.00
34482;BME280;20720;48.886;9.388;2023-06-10T02:19:44;98009.47;;;19.53;100.00
34482;BME280;20720;48.886;9.388;2023-06-10T02:22:19;98012.16;;;19.68;100.00
34482;BME280;20720;48.886;9.388;2023-06-10T02:24:44;98003.09;;;19.90;100.00
34482;BME280;20720;48.886;9.388;2023-06-10T02:27:10;98008.69;;;19.93;100.00
34482;BME280;20720;48.886;9.388;2023-06-10T02:29:35;98011.66;;;19.87;100.00
34482;BME280;20720;48.886;9.388;2023-06-10T02:32:02;98016.44;;;19.85;100.00
34482;BME280;20720;48.886;9.388;2023-06-10T02:34:27;98016.38;;;19.44;100.00
34482;BME280;20720;48.886;9.388;2023-06-10T02:36:53;98018.56;;;19.83;100.00
34482;BME280;20720;48.886;9.388;2023-06-10T02:39:19;98015.09;;;19.87;100.00
34482;BME280;20720;48.886;9.388;2023-06-10T02:41:44;98026.81;;;19.71;100.00
34482;BME280;20720;48.886;9.388;2023-06-10T02:44:09;98020.94;;;19.74;100.00
34482;BME280;20720;48.886;9.388;2023-06-10T02:46:34;98023.38;;;19.86;100.00
34482;BME280;20720;48.886;9.388;2023-06-10T02:49:00;98028.13;;;19.68;100.00
34482;BME280;20720;48.886;9.388;2023-06-10T02:51:26;98022.66;;;19.18;100.00
34482;BME280;20720;48.886;9.388;2023-06-10T02:53:52;98024.38;;;19.39;100.00
34482;BME280;20720;48.886;9.388;2023-06-10T02:56:18;98022.00;;;19.53;100.00
34482;BME280;20720;48.886;9.388;2023-06-10T02:58:43;98019.59;;;19.46;100.00
34482;BME280;20720;48.886;9.388;2023-06-10T03:01:09;98029.78;;;20.00;100.00
34482;BME280;20720;48.886;9.388;2023-06-10T03:03:35;98028.47;;;20.02;99.48
34482;BME280;20720;48.886;9.388;2023-06-10T03:06:02;98032.97;;;19.77;100.00
34482;BME280;20720;48.886;9.388;2023-06-10T03:08:28;98030.19;;;19.36;100.00
34482;BME280;20720;48.886;9.388;2023-06-10T03:10:53;98027.94;;;18.98;100.00
34482;BME280;20720;48.886;9.388;2023-06-10T03:13:18;98033.75;;;19.82;100.00
34482;BME280;20720;48.886;9.388;2023-06-10T03:15:44;98031.38;;;19.81;100.00
34482;BME280;20720;48.886;9.388;2023-06-10T03:18:11;98030.00;;;19.63;100.00
34482;BME280;20720;48.886;9.388;2023-06-10T03:20:36;98038.03;;;19.68;100.00
34482;BME280;20720;48.886;9.388;2023-06-10T03:23:02;98039.38;;;19.86;100.00
34482;BME280;20720;48.886;9.388;2023-06-10T03:25:27;98040.72;;;19.88;100.00
34482;BME280;20720;48.886;9.388;2023-06-10T03:27:53;98047.38;;;19.76;100.00
34482;BME280;20720;48.886;9.388;2023-06-10T03:30:18;98048.13;;;19.61;100.00
34482;BME280;20720;48.886;9.388;2023-06-10T03:32:43;98043.59;;;19.61;100.00
34482;BME280;20720;48.886;9.388;2023-06-10T03:35:09;98048.94;;;19.82;100.00
34482;BME280;20720;48.886;9.388;2023-06-10T03:37:34;98048.38;;;19.64;100.00
34482;BME280;20720;48.886;9.388;2023-06-10T03:40:00;98051.56;;;19.51;100.00
34482;BME280;20720;48.886;9.388;2023-06-10T03:42:25;98054.09;;;19.21;100.00
34482;BME280;20720;48.886;9.388;2023-06-10T03:44:50;98052.00;;;19.28;100.00
34482;BME280;20720;48.886;9.388;2023-06-10T03:47:15;98058.75;;;19.41;100.00
34482;BME280;20720;48.886;9.388;2023-06-10T03:49:41;98055.34;;;19.60;100.00
34482;BME280;20720;48.886;9.388;2023-06-10T03:52:06;98069.63;;;19.34;100.00
34482;BME280;20720;48.886;9.388;2023-06-10T03:54:32;98067.13;;;19.95;100.00
34482;BME280;20720;48.886;9.388;2023-06-10T03:56:59;98071.34;;;19.65;100.00
34482;BME280;20720;48.886;9.388;2023-06-10T03:59:24;98061.22;;;19.62;100.00
34482;BME280;20720;48.886;9.388;2023-06-10T04:01:49;98069.78;;;19.95;100.00
34482;BME280;20720;48.886;9.388;2023-06-10T04:04:15;98067.09;;;19.80;100.00
34482;BME280;20720;48.886;9.388;2023-06-10T04:06:43;98063.59;;;19.64;100.00
34482;BME280;20720;48.886;9.388;2023-06-10T04:09:09;98066.53;;;19.62;100.00
34482;BME280;20720;48.886;9.388;2023-06-10T04:11:35;98065.97;;;19.55;100.00
34482;BME280;20720;48.886;9.388;2023-06-10T04:14:00;98070.31;;;19.92;100.00
34482;BME280;20720;48.886;9.388;2023-06-10T04:16:26;98072.69;;;19.78;100.00
34482;BME280;20720;48.886;9.388;2023-06-10T04:18:51;98069.66;;;19.44;100.00
34482;BME280;20720;48.886;9.388;2023-06-10T04:21:17;98074.31;;;19.84;100.00
34482;BME280;20720;48.886;9.388;2023-06-10T04:23:42;98078.75;;;19.43;100.00
34482;BME280;20720;48.886;9.388;2023-06-10T04:26:07;98083.34;;;19.73;100.00
34482;BME280;20720;48.886;9.388;2023-06-10T04:28:32;98080.94;;;19.77;100.00
34482;BME280;20720;48.886;9.388;2023-06-10T04:30:58;98086.19;;;19.41;100.00
34482;BME280;20720;48.886;9.388;2023-06-10T04:33:23;98078.25;;;19.66;100.00
34482;BME280;20720;48.886;9.388;2023-06-10T04:35:50;98083.97;;;20.40;100.00
34482;BME280;20720;48.886;9.388;2023-06-10T04:38:15;98084.22;;;20.54;100.00
34482;BME280;20720;48.886;9.388;2023-06-10T04:40:40;98084.22;;;20.54;100.00
34482;BME280;20720;48.886;9.388;2023-06-10T04:43:06;98093.75;;;20.95;99.88
34482;BME280;20720;48.886;9.388;2023-06-10T04:45:31;98088.44;;;21.00;100.00
34482;BME280;20720;48.886;9.388;2023-06-10T04:47:56;98091.34;;;21.73;95.29
34482;BME280;20720;48.886;9.388;2023-06-10T04:50:23;98092.41;;;22.83;87.55
34482;BME280;20720;48.886;9.388;2023-06-10T04:52:48;98099.94;;;24.31;77.81
34482;BME280;20720;48.886;9.388;2023-06-10T04:55:15;98088.38;;;25.63;71.68
34482;BME280;20720;48.886;9.388;2023-06-10T04:57:40;98096.56;;;26.07;68.51
34482;BME280;20720;48.886;9.388;2023-06-10T05:00:06;98094.97;;;26.72;65.83
34482;BME280;20720;48.886;9.388;2023-06-10T05:02:31;98096.59;;;27.04;63.15
34482;BME280;20720;48.886;9.388;2023-06-10T05:04:56;98097.81;;;26.98;63.40
34482;BME280;20720;48.886;9.388;2023-06-10T05:07:23;98101.97;;;26.73;64.16
34482;BME280;20720;48.886;9.388;2023-06-10T05:09:48;98107.28;;;27.65;61.49
34482;BME280;20720;48.886;9.388;2023-06-10T05:12:13;98107.25;;;26.34;66.02
34482;BME280;20720;48.886;9.388;2023-06-10T05:14:38;98110.50;;;25.33;71.82
34482;BME280;20720;48.886;9.388;2023-06-10T05:17:04;98111.09;;;24.38;74.77
34482;BME280;20720;48.886;9.388;2023-06-10T05:19:31;98107.47;;;23.92;77.93
34482;BME280;20720;48.886;9.388;2023-06-10T05:21:56;98103.00;;;24.75;74.77
34482;BME280;20720;48.886;9.388;2023-06-10T05:24:22;98101.69;;;26.61;68.45
34482;BME280;20720;48.886;9.388;2023-06-10T05:26:48;98098.88;;;24.78;73.11
34482;BME280;20720;48.886;9.388;2023-06-10T05:29:13;98105.00;;;25.78;70.40
34482;BME280;20720;48.886;9.388;2023-06-10T05:31:40;98104.88;;;27.16;66.26
34482;BME280;20720;48.886;9.388;2023-06-10T05:34:06;98103.56;;;26.74;67.33
34482;BME280;20720;48.886;9.388;2023-06-10T05:36:31;98102.88;;;27.30;65.29
34482;BME280;20720;48.886;9.388;2023-06-10T05:38:57;98108.19;;;27.13;65.60
34482;BME280;20720;48.886;9.388;2023-06-10T05:41:22;98117.38;;;28.42;60.58
34482;BME280;20720;48.886;9.388;2023-06-10T05:43:47;98115.88;;;28.87;58.87
34482;BME280;20720;48.886;9.388;2023-06-10T05:46:13;98118.19;;;29.06;57.76
34482;BME280;20720;48.886;9.388;2023-06-10T05:48:38;98122.97;;;28.54;59.69
34482;BME280;20720;48.886;9.388;2023-06-10T05:51:03;98118.41;;;26.94;62.85
34482;BME280;20720;48.886;9.388;2023-06-10T05:53:28;98116.53;;;26.72;64.07
34482;BME280;20720;48.886;9.388;2023-06-10T05:55:56;98125.09;;;27.92;61.29
34482;BME280;20720;48.886;9.388;2023-06-10T05:58:23;98119.75;;;27.36;64.26
34482;BME280;20720;48.886;9.388;2023-06-10T06:00:48;98114.78;;;27.85;62.34
34482;BME280;20720;48.886;9.388;2023-06-10T06:03:14;98123.72;;;27.38;63.14
34482;BME280;20720;48.886;9.388;2023-06-10T06:05:39;98119.66;;;27.27;65.87
34482;BME280;20720;48.886;9.388;2023-06-10T06:08:05;98129.72;;;28.86;59.94
34482;BME280;20720;48.886;9.388;2023-06-10T06:10:30;98123.94;;;30.29;56.36
34482;BME280;20720;48.886;9.388;2023-06-10T06:12:56;98124.94;;;29.75;56.59
34482;BME280;20720;48.886;9.388;2023-06-10T06:15:21;98132.34;;;29.11;58.70
34482;BME280;20720;48.886;9.388;2023-06-10T06:17:46;98125.28;;;29.65;58.06
34482;BME280;20720;48.886;9.388;2023-06-10T06:20:12;98121.63;;;29.32;58.79
34482;BME280;20720;48.886;9.388;2023-06-10T06:22:37;98118.88;;;29.69;57.99
34482;BME280;20720;48.886;9.388;2023-06-10T06:25:03;98121.69;;;27.52;62.85
34482;BME280;20720;48.886;9.388;2023-06-10T06:27:28;98119.72;;;25.94;71.52
34482;BME280;20720;48.886;9.388;2023-06-10T06:29:54;98116.69;;;27.85;66.63
34482;BME280;20720;48.886;9.388;2023-06-10T06:32:19;98124.28;;;29.78;59.88
34482;BME280;20720;48.886;9.388;2023-06-10T06:34:44;98115.50;;;27.52;65.28
34482;BME280;20720;48.886;9.388;2023-06-10T06:37:10;98126.44;;;27.47;67.36
34482;BME280;20720;48.886;9.388;2023-06-10T06:39:35;98116.59;;;29.22;62.30
34482;BME280;20720;48.886;9.388;2023-06-10T06:42:00;98124.44;;;29.44;59.86
34482;BME280;20720;48.886;9.388;2023-06-10T06:44:25;98123.41;;;29.57;60.71
34482;BME280;20720;48.886;9.388;2023-06-10T06:46:51;98133.66;;;30.63;57.64
34482;BME280;20720;48.886;9.388;2023-06-10T06:49:16;98122.19;;;31.35;54.15
34482;BME280;20720;48.886;9.388;2023-06-10T06:51:41;98121.94;;;30.71;56.10
34482;BME280;20720;48.886;9.388;2023-06-10T06:54:06;98122.16;;;31.11;56.10
34482;BME280;20720;48.886;9.388;2023-06-10T06:56:32;98123.19;;;31.18;55.31
34482;BME280;20720;48.886;9.388;2023-06-10T06:58:57;98115.84;;;31.55;52.83
34482;BME280;20720;48.886;9.388;2023-06-10T07:01:22;98124.88;;;31.23;53.98
34482;BME280;20720;48.886;9.388;2023-06-10T07:03:47;98127.41;;;31.76;52.47
34482;BME280;20720;48.886;9.388;2023-06-10T07:06:13;98118.44;;;31.88;52.22
34482;BME280;20720;48.886;9.388;2023-06-10T07:08:38;98121.56;;;32.54;50.93
34482;BME280;20720;48.886;9.388;2023-06-10T07:11:03;98121.84;;;29.56;55.21
34482;BME280;20720;48.886;9.388;2023-06-10T07:13:29;98128.94;;;28.85;59.73
34482;BME280;20720;48.886;9.388;2023-06-10T07:15:54;98127.88;;;29.24;58.67
34482;BME280;20720;48.886;9.388;2023-06-10T07:18:19;98127.41;;;29.22;58.73
34482;BME280;20720;48.886;9.388;2023-06-10T07:20:44;98131.69;;;29.90;56.48
34482;BME280;20720;48.886;9.388;2023-06-10T07:23:10;98129.16;;;29.85;55.37
34482;BME280;20720;48.886;9.388;2023-06-10T07:25:35;98126.28;;;29.90;56.10
34482;BME280;20720;48.886;9.388;2023-06-10T07:28:00;98125.47;;;27.99;60.02
34482;BME280;20720;48.886;9.388;2023-06-10T07:30:26;98119.81;;;29.44;57.79
34482;BME280;20720;48.886;9.388;2023-06-10T07:32:51;98121.31;;;28.78;60.50
34482;BME280;20720;48.886;9.388;2023-06-10T07:35:16;98118.09;;;31.29;53.89
34482;BME280;20720;48.886;9.388;2023-06-10T07:37:42;98120.72;;;32.37;50.39
34482;BME280;20720;48.886;9.388;2023-06-10T07:40:08;98121.75;;;31.21;53.34
34482;BME280;20720;48.886;9.388;2023-06-10T07:42:35;98116.47;;;32.12;49.56
34482;BME280;20720;48.886;9.388;2023-06-10T07:45:00;98111.78;;;31.73;50.29
34482;BME280;20720;48.886;9.388;2023-06-10T07:47:26;98116.56;;;31.52;50.65
34482;BME280;20720;48.886;9.388;2023-06-10T07:49:51;98109.59;;;30.94;52.38
34482;BME280;20720;48.886;9.388;2023-06-10T07:52:16;98114.72;;;31.32;51.57
34482;BME280;20720;48.886;9.388;2023-06-10T07:54:41;98117.72;;;32.42;49.51
34482;BME280;20720;48.886;9.388;2023-06-10T07:57:07;98109.53;;;31.39;50.51
34482;BME280;20720;48.886;9.388;2023-06-10T07:59:32;98112.63;;;32.53;48.58
34482;BME280;20720;48.886;9.388;2023-06-10T08:01:58;98113.75;;;33.73;46.62
34482;BME280;20720;48.886;9.388;2023-06-10T08:04:23;98116.75;;;31.71;48.66
34482;BME280;20720;48.886;9.388;2023-06-10T08:06:48;98114.47;;;32.09;48.77
34482;BME280;20720;48.886;9.388;2023-06-10T08:09:13;98107.72;;;31.43;51.36
34482;BME280;20720;48.886;9.388;2023-06-10T08:11:39;98113.44;;;32.69;48.53
34482;BME280;20720;48.886;9.388;2023-06-10T08:14:04;98113.78;;;31.16;50.70
34482;BME280;20720;48.886;9.388;2023-06-10T08:16:29;98111.03;;;32.12;47.38
34482;BME280;20720;48.886;9.388;2023-06-10T08:18:55;98107.09;;;32.50;47.57
34482;BME280;20720;48.886;9.388;2023-06-10T08:21:20;98107.47;;;32.64;47.14
34482;BME280;20720;48.886;9.388;2023-06-10T08:23:45;98098.06;;;31.33;49.32
34482;BME280;20720;48.886;9.388;2023-06-10T08:26:11;98095.44;;;32.65;47.56
34482;BME280;20720;48.886;9.388;2023-06-10T08:28:36;98103.31;;;33.44;46.17
34482;BME280;20720;48.886;9.388;2023-06-10T08:31:01;98096.25;;;32.25;47.83
34482;BME280;20720;48.886;9.388;2023-06-10T08:33:26;98101.16;;;30.42;49.71
34482;BME280;20720;48.886;9.388;2023-06-10T08:35:52;98093.91;;;32.52;47.35
34482;BME280;20720;48.886;9.388;2023-06-10T08:38:17;98100.56;;;32.26;47.89
34482;BME280;20720;48.886;9.388;2023-06-10T08:40:42;98105.28;;;30.93;49.55
34482;BME280;20720;48.886;9.388;2023-06-10T08:43:15;98099.66;;;33.21;45.93
34482;BME280;20720;48.886;9.388;2023-06-10T08:45:42;98106.91;;;31.79;48.05
34482;BME280;20720;48.886;9.388;2023-06-10T08:48:10;98100.56;;;32.82;44.89
34482;BME280;20720;48.886;9.388;2023-06-10T08:50:37;98100.97;;;33.27;43.99
34482;BME280;20720;48.886;9.388;2023-06-10T08:53:05;98108.34;;;32.68;46.45
34482;BME280;20720;48.886;9.388;2023-06-10T08:55:33;98095.53;;;32.84;44.21
34482;BME280;20720;48.886;9.388;2023-06-10T08:58:00;98092.03;;;31.88;46.24
34482;BME280;20720;48.886;9.388;2023-06-10T09:00:26;98102.13;;;30.38;49.71
34482;BME280;20720;48.886;9.388;2023-06-10T09:02:52;98095.47;;;31.73;47.42
34482;BME280;20720;48.886;9.388;2023-06-10T09:05:17;98094.97;;;32.47;45.35
34482;BME280;20720;48.886;9.388;2023-06-10T09:07:45;98094.16;;;32.90;46.03
34482;BME280;20720;48.886;9.388;2023-06-10T09:10:11;98090.38;;;35.55;40.93
34482;BME280;20720;48.886;9.388;2023-06-10T09:12:36;98089.13;;;31.69;48.03
34482;BME280;20720;48.886;9.388;2023-06-10T09:15:03;98089.16;;;32.49;45.37
34482;BME280;20720;48.886;9.388;2023-06-10T09:17:29;98093.16;;;29.26;52.35
34482;BME280;20720;48.886;9.388;2023-06-10T09:19:54;98093.13;;;29.63;51.22
34482;BME280;20720;48.886;9.388;2023-06-10T09:22:21;98082.09;;;31.92;48.19
34482;BME280;20720;48.886;9.388;2023-06-10T09:24:47;98091.88;;;31.21;48.64
34482;BME280;20720;48.886;9.388;2023-06-10T09:27:13;98083.94;;;31.28;48.70
34482;BME280;20720;48.886;9.388;2023-06-10T09:29:51;98078.84;;;31.51;47.97
34482;BME280;20720;48.886;9.388;2023-06-10T09:32:18;98085.38;;;31.98;47.11
34482;BME280;20720;48.886;9.388;2023-06-10T09:34:43;98083.00;;;31.12;48.75
34482;BME280;20720;48.886;9.388;2023-06-10T09:37:09;98077.50;;;30.64;49.98
34482;BME280;20720;48.886;9.388;2023-06-10T09:39:37;98078.28;;;31.09;48.10
34482;BME280;20720;48.886;9.388;2023-06-10T09:42:15;98082.66;;;33.59;44.24
34482;BME280;20720;48.886;9.388;2023-06-10T09:44:41;98073.97;;;34.26;42.79
34482;BME280;20720;48.886;9.388;2023-06-10T09:47:06;98079.47;;;33.72;45.61
34482;BME280;20720;48.886;9.388;2023-06-10T09:49:31;98081.41;;;33.72;44.50
34482;BME280;20720;48.886;9.388;2023-06-10T09:51:56;98082.13;;;35.51;41.79
34482;BME280;20720;48.886;9.388;2023-06-10T09:54:22;98078.13;;;35.71;40.60
34482;BME280;20720;48.886;9.388;2023-06-10T09:56:48;98071.69;;;32.93;44.04
34482;BME280;20720;48.886;9.388;2023-06-10T09:59:14;98083.53;;;33.63;43.77
34482;BME280;20720;48.886;9.388;2023-06-10T10:01:39;98084.88;;;36.07;40.68
34482;BME280;20720;48.886;9.388;2023-06-10T10:04:05;98076.03;;;37.34;37.39
34482;BME280;20720;48.886;9.388;2023-06-10T10:06:31;98072.16;;;37.97;36.36
34482;BME280;20720;48.886;9.388;2023-06-10T10:08:56;98075.06;;;34.02;42.65
34482;BME280;20720;48.886;9.388;2023-06-10T10:11:22;98077.09;;;36.09;39.50
34482;BME280;20720;48.886;9.388;2023-06-10T10:13:49;98072.81;;;36.12;38.46
34482;BME280;20720;48.886;9.388;2023-06-10T10:16:24;98062.50;;;37.08;36.80
34482;BME280;20720;48.886;9.388;2023-06-10T10:18:59;98061.13;;;35.10;39.08
34482;BME280;20720;48.886;9.388;2023-06-10T10:21:32;98066.53;;;33.69;41.60
34482;BME280;20720;48.886;9.388;2023-06-10T10:24:16;98064.47;;;32.42;43.56
34482;BME280;20720;48.886;9.388;2023-06-10T10:26:43;98060.88;;;34.73;40.31
34482;BME280;20720;48.886;9.388;2023-06-10T10:29:23;98053.78;;;35.14;40.16
34482;BME280;20720;48.886;9.388;2023-06-10T10:31:53;98066.66;;;34.11;41.70
34482;BME280;20720;48.886;9.388;2023-06-10T10:34:21;98058.00;;;35.86;37.72
34482;BME280;20720;48.886;9.388;2023-06-10T10:36:50;98054.03;;;33.18;40.75
34482;BME280;20720;48.886;9.388;2023-06-10T10:39:15;98051.13;;;31.97;43.27
34482;BME280;20720;48.886;9.388;2023-06-10T10:41:41;98055.66;;;32.60;43.47
34482;BME280;20720;48.886;9.388;2023-06-10T10:44:08;98049.66;;;30.67;45.35
34482;BME280;20720;48.886;9.388;2023-06-10T10:46:45;98050.09;;;31.62;45.97
34482;BME280;20720;48.886;9.388;2023-06-10T10:49:14;98051.97;;;32.53;43.27
34482;BME280;20720;48.886;9.388;2023-06-10T10:51:57;98046.41;;;30.73;45.06
34482;BME280;20720;48.886;9.388;2023-06-10T10:54:31;98052.69;;;31.46;44.42
34482;BME280;20720;48.886;9.388;2023-06-10T10:57:09;98042.09;;;33.07;42.70
34482;BME280;20720;48.886;9.388;2023-06-10T10:59:58;98040.25;;;34.98;39.37
34482;BME280;20720;48.886;9.388;2023-06-10T11:02:44;98034.53;;;32.42;42.26
34482;BME280;20720;48.886;9.388;2023-06-10T11:05:12;98037.88;;;34.74;39.60
34482;BME280;20720;48.886;9.388;2023-06-10T11:07:38;98039.78;;;36.31;37.34
34482;BME280;20720;48.886;9.388;2023-06-10T11:10:09;98044.91;;;35.99;36.98
34482;BME280;20720;48.886;9.388;2023-06-10T11:12:53;98047.00;;;37.26;35.24
34482;BME280;20720;48.886;9.388;2023-06-10T11:15:27;98038.44;;;38.00;34.77
34482;BME280;20720;48.886;9.388;2023-06-10T11:18:12;98038.50;;;37.42;34.27
34482;BME280;20720;48.886;9.388;2023-06-10T11:20:51;98034.88;;;37.89;34.65
34482;BME280;20720;48.886;9.388;2023-06-10T11:28:33;98026.78;;;38.24;33.27
34482;BME280;20720;48.886;9.388;2023-06-10T11:30:59;98027.81;;;35.79;34.93
34482;BME280;20720;48.886;9.388;2023-06-10T11:33:24;98028.41;;;34.68;37.17
34482;BME280;20720;48.886;9.388;2023-06-10T11:35:50;98031.72;;;34.39;37.23
34482;BME280;20720;48.886;9.388;2023-06-10T11:38:15;98028.09;;;36.34;35.91
34482;BME280;20720;48.886;9.388;2023-06-10T11:40:47;98017.03;;;38.44;32.44
34482;BME280;20720;48.886;9.388;2023-06-10T11:43:13;98023.28;;;38.27;33.04
34482;BME280;20720;48.886;9.388;2023-06-10T11:45:41;98021.44;;;34.10;37.76
34482;BME280;20720;48.886;9.388;2023-06-10T11:48:06;98018.66;;;37.62;35.06
34482;BME280;20720;48.886;9.388;2023-06-10T11:50:32;98012.38;;;38.83;32.33
34482;BME280;20720;48.886;9.388;2023-06-10T11:52:58;98004.84;;;34.83;35.50
34482;BME280;20720;48.886;9.388;2023-06-10T11:55:25;98009.06;;;33.43;39.81
34482;BME280;20720;48.886;9.388;2023-06-10T11:57:50;98013.50;;;35.11;37.74
34482;BME280;20720;48.886;9.388;2023-06-10T12:00:22;98006.88;;;38.69;33.68
34482;BME280;20720;48.886;9.388;2023-06-10T12:02:55;98013.47;;;36.56;35.96
34482;BME280;20720;48.886;9.388;2023-06-10T12:05:22;98004.19;;;34.67;36.45
34482;BME280;20720;48.886;9.388;2023-06-10T12:07:47;98000.97;;;34.84;37.41
34482;BME280;20720;48.886;9.388;2023-06-10T12:10:13;98008.81;;;36.56;35.25
34482;BME280;20720;48.886;9.388;2023-06-10T12:12:38;98003.38;;;37.68;35.11
34482;BME280;20720;48.886;9.388;2023-06-10T12:15:04;97998.13;;;36.11;34.67
34482;BME280;20720;48.886;9.388;2023-06-10T12:19:56;97997.47;;;31.42;41.28
34482;BME280;20720;48.886;9.388;2023-06-10T12:22:22;98002.34;;;32.44;41.09
34482;BME280;20720;48.886;9.388;2023-06-10T12:25:05;97996.47;;;33.54;38.32
34482;BME280;20720;48.886;9.388;2023-06-10T12:27:32;98002.69;;;33.20;39.04
34482;BME280;20720;48.886;9.388;2023-06-10T12:30:00;97993.00;;;36.10;35.13
34482;BME280;20720;48.886;9.388;2023-06-10T12:35:06;97998.47;;;36.39;34.27
34482;BME280;20720;48.886;9.388;2023-06-10T12:37:32;97989.63;;;32.79;38.37
34482;BME280;20720;48.886;9.388;2023-06-10T12:40:05;97990.09;;;33.31;39.24
34482;BME280;20720;48.886;9.388;2023-06-10T12:42:37;97991.94;;;34.15;37.76
34482;BME280;20720;48.886;9.388;2023-06-10T12:45:03;97995.97;;;33.14;39.46
34482;BME280;20720;48.886;9.388;2023-06-10T12:47:37;97994.06;;;33.68;38.88
34482;BME280;20720;48.886;9.388;2023-06-10T12:50:06;97988.00;;;34.55;38.11
34482;BME280;20720;48.886;9.388;2023-06-10T12:52:32;97988.59;;;33.49;39.29
34482;BME280;20720;48.886;9.388;2023-06-10T12:54:58;97985.28;;;34.36;37.58
34482;BME280;20720;48.886;9.388;2023-06-10T12:57:23;97992.34;;;34.82;36.89
34482;BME280;20720;48.886;9.388;2023-06-10T12:59:49;97991.13;;;38.45;33.26
34482;BME280;20720;48.886;9.388;2023-06-10T13:02:25;97991.13;;;37.45;33.88
34482;BME280;20720;48.886;9.388;2023-06-10T13:04:51;97994.50;;;37.93;33.68
34482;BME280;20720;48.886;9.388;2023-06-10T13:07:16;97983.47;;;34.88;36.91
34482;BME280;20720;48.886;9.388;2023-06-10T13:09:42;97995.56;;;35.92;36.34
34482;BME280;20720;48.886;9.388;2023-06-10T13:12:08;97992.72;;;35.03;36.66